Time;durP1;ratioP1;P1;durP2;ratioP2;P2;SDS_P1;SDS_P2;PMS_P1;PMS_P2;Temp;Humidity;BMP_temperature;BMP_pressure;BME280_temperature;BME280_humidity;BME280_pressure;Samples;Min_cycle;Max_cycle;Signal;HPM_P1;HPM_P2
2022/05/02 00:01:09;;;;;;;5.83;5.33;;;14.00;99.90;;;;;;6328482;28;20472;-64
2022/05/02 00:04:13;;;;;;;8.10;7.40;;;14.00;99.90;;;;;;6328227;28;20483;-64
2022/05/02 00:07:17;;;;;;;8.67;6.80;;;13.90;99.90;;;;;;6326801;28;20476;-64
2022/05/02 00:10:20;;;;;;;6.90;6.30;;;14.00;99.90;;;;;;6327737;28;20485;-65
2022/05/02 00:13:23;;;;;;;6.80;6.20;;;13.90;99.90;;;;;;6327837;28;20468;-65
2022/05/02 00:16:27;;;;;;;6.47;5.87;;;14.00;99.90;;;;;;6328404;28;20468;-64
2022/05/02 00:19:30;;;;;;;7.60;6.50;;;14.00;99.90;;;;;;6330771;28;20976;-64
2022/05/02 00:22:34;;;;;;;6.50;5.90;;;14.10;99.90;;;;;;6330629;28;20479;-65
2022/05/02 00:25:38;;;;;;;6.40;5.80;;;14.10;99.90;;;;;;6330899;28;20465;-65
2022/05/02 00:28:41;;;;;;;7.40;6.70;;;14.00;99.90;;;;;;6328307;28;20465;-65
2022/05/02 00:31:45;;;;;;;6.73;5.70;;;13.90;99.90;;;;;;6328538;28;20659;-67
2022/05/02 00:34:49;;;;;;;7.17;6.47;;;13.90;99.90;;;;;;6328115;28;20483;-66
2022/05/02 00:37:53;;;;;;;7.20;6.60;;;13.90;99.90;;;;;;6327681;28;20829;-65
2022/05/02 00:40:59;;;;;;;6.50;6.00;;;14.00;99.90;;;;;;6327297;28;20475;-66
2022/05/02 00:44:02;;;;;;;6.50;6.00;;;14.00;99.90;;;;;;6327752;28;20471;-66
2022/05/02 00:47:06;;;;;;;6.77;6.27;;;14.10;99.90;;;;;;6327857;28;20473;-66
2022/05/02 00:50:10;;;;;;;7.97;7.30;;;14.00;99.90;;;;;;6327108;28;20487;-66
2022/05/02 00:53:16;;;;;;;6.43;5.87;;;14.00;99.90;;;;;;6326926;28;20468;-66
2022/05/02 00:56:21;;;;;;;6.33;5.87;;;14.00;99.90;;;;;;6326921;28;20464;-66
2022/05/02 00:59:25;;;;;;;7.10;6.60;;;14.00;99.90;;;;;;6327507;28;20479;-66
2022/05/02 01:02:28;;;;;;;6.80;6.20;;;14.00;99.90;;;;;;6326469;28;20987;-67
2022/05/02 01:05:31;;;;;;;8.10;7.30;;;14.00;99.90;;;;;;6317354;28;20975;-66
2022/05/02 01:08:35;;;;;;;6.43;5.93;;;14.00;99.90;;;;;;6326167;28;20469;-66
2022/05/02 01:11:38;;;;;;;7.40;6.70;;;14.00;99.90;;;;;;6326594;28;20468;-66
2022/05/02 01:14:42;;;;;;;7.80;7.20;;;13.90;99.90;;;;;;6326243;28;20473;-66
2022/05/02 01:17:46;;;;;;;7.83;7.23;;;13.90;99.90;;;;;;6326190;28;20465;-66
2022/05/02 01:20:52;;;;;;;7.47;6.87;;;13.90;99.90;;;;;;6325386;28;20456;-66
2022/05/02 01:23:58;;;;;;;6.97;6.27;;;13.90;99.90;;;;;;6326142;28;20481;-66
2022/05/02 01:27:01;;;;;;;6.60;6.10;;;13.90;99.90;;;;;;6326822;28;20423;-66
2022/05/02 01:30:06;;;;;;;7.60;6.60;;;14.00;99.90;;;;;;6326957;28;20445;-66
2022/05/02 01:33:10;;;;;;;6.70;6.20;;;13.90;99.90;;;;;;6326034;28;20460;-66
2022/05/02 01:36:16;;;;;;;7.37;6.77;;;14.00;99.90;;;;;;6326085;28;20461;-65
2022/05/02 01:39:19;;;;;;;7.27;6.57;;;14.00;99.90;;;;;;6325295;28;20793;-66
2022/05/02 01:42:22;;;;;;;6.60;6.10;;;13.90;99.90;;;;;;6326156;28;20498;-65
2022/05/02 01:45:25;;;;;;;7.13;6.50;;;13.90;99.90;;;;;;6326052;28;20464;-65
2022/05/02 01:48:28;;;;;;;7.37;6.77;;;13.90;99.90;;;;;;6325623;28;20797;-65
2022/05/02 01:51:33;;;;;;;7.20;6.60;;;13.80;99.90;;;;;;6325798;28;20990;-65
2022/05/02 01:54:36;;;;;;;8.67;6.77;;;13.80;99.90;;;;;;6325631;28;20477;-65
2022/05/02 01:57:39;;;;;;;7.90;7.10;;;13.70;99.90;;;;;;6325813;28;20469;-65
2022/05/02 02:00:42;;;;;;;7.33;6.77;;;13.70;99.90;;;;;;6325411;28;20475;-65
2022/05/02 02:03:45;;;;;;;7.17;6.57;;;13.80;99.90;;;;;;6325290;28;20472;-65
2022/05/02 02:06:49;;;;;;;7.73;6.93;;;13.70;99.90;;;;;;6320603;28;20762;-65
2022/05/02 02:09:52;;;;;;;8.97;8.17;;;13.70;99.90;;;;;;6324633;28;20473;-65
2022/05/02 02:12:55;;;;;;;9.50;8.70;;;13.60;99.90;;;;;;6323407;28;20479;-65
2022/05/02 02:16:00;;;;;;;9.60;8.80;;;13.60;99.90;;;;;;6323467;28;20469;-65
2022/05/02 02:19:04;;;;;;;11.00;9.80;;;13.50;99.90;;;;;;6323718;28;20479;-65
2022/05/02 02:22:18;;;;;;;10.37;9.40;;;13.30;99.90;;;;;;6323797;28;20476;-66
2022/05/02 02:25:21;;;;;;;11.03;10.13;;;13.10;99.90;;;;;;6324569;28;20464;-66
2022/05/02 02:28:24;;;;;;;10.70;9.87;;;13.00;99.90;;;;;;6324677;28;20464;-66
2022/05/02 02:31:28;;;;;;;10.40;9.60;;;12.80;99.90;;;;;;6322869;28;20466;-66
2022/05/02 02:34:31;;;;;;;10.20;9.27;;;12.80;99.90;;;;;;6323181;28;21101;-66
2022/05/02 02:37:35;;;;;;;11.40;10.40;;;12.90;99.90;;;;;;6323313;28;20475;-66
2022/05/02 02:40:38;;;;;;;10.60;9.80;;;12.90;99.90;;;;;;6323142;28;20464;-66
2022/05/02 02:43:41;;;;;;;10.73;9.93;;;12.90;99.90;;;;;;6323394;28;20475;-66
2022/05/02 02:46:45;;;;;;;10.40;9.50;;;13.00;99.90;;;;;;6323164;28;20472;-66
2022/05/02 02:49:48;;;;;;;9.73;8.73;;;13.10;99.90;;;;;;6322916;28;20503;-66
2022/05/02 02:52:52;;;;;;;9.73;8.90;;;13.10;99.90;;;;;;6322914;28;20492;-66
2022/05/02 02:55:56;;;;;;;10.00;9.20;;;13.20;99.90;;;;;;6323068;28;20962;-66
2022/05/02 02:58:59;;;;;;;10.43;9.53;;;13.20;99.90;;;;;;6323035;28;20499;-66
2022/05/02 03:02:03;;;;;;;10.73;9.83;;;13.30;99.90;;;;;;6323818;28;20473;-66
2022/05/02 03:08:30;;;;;;;10.83;9.83;;;13.30;99.90;;;;;;6324752;28;20476;-65
2022/05/02 03:11:33;;;;;;;10.53;9.63;;;13.30;99.90;;;;;;6328049;28;20468;-67
2022/05/02 03:14:36;;;;;;;10.70;9.67;;;13.30;99.90;;;;;;6326935;28;20471;-64
2022/05/02 03:17:39;;;;;;;11.27;10.27;;;13.20;99.90;;;;;;6325934;28;20479;-66
2022/05/02 03:20:42;;;;;;;10.87;9.77;;;13.20;99.90;;;;;;6325934;28;20814;-66
2022/05/02 03:23:47;;;;;;;11.07;10.03;;;13.20;99.90;;;;;;6327912;28;20476;-67
2022/05/02 03:26:50;;;;;;;10.60;9.80;;;13.20;99.90;;;;;;6329623;28;20495;-66
2022/05/02 03:29:53;;;;;;;11.17;10.07;;;13.20;99.90;;;;;;6331888;28;20466;-67
2022/05/02 03:32:56;;;;;;;10.90;10.00;;;13.20;99.90;;;;;;6330768;28;20449;-67
2022/05/02 03:35:59;;;;;;;11.17;10.07;;;13.20;99.90;;;;;;6330690;28;20437;-67
2022/05/02 03:39:04;;;;;;;11.30;10.30;;;13.20;99.90;;;;;;6332214;28;20462;-67
2022/05/02 03:42:08;;;;;;;10.70;9.70;;;13.30;99.90;;;;;;6333728;28;20919;-66
2022/05/02 03:45:11;;;;;;;10.27;9.27;;;13.30;99.90;;;;;;6334914;28;20476;-65
2022/05/02 03:48:14;;;;;;;9.60;8.77;;;13.20;99.90;;;;;;6332606;28;20456;-65
2022/05/02 03:51:17;;;;;;;9.60;8.10;;;13.20;99.90;;;;;;6329938;28;20464;-65
2022/05/02 03:54:22;;;;;;;10.10;9.27;;;13.20;99.90;;;;;;6328985;28;20976;-64
2022/05/02 03:57:25;;;;;;;11.30;9.03;;;13.20;99.90;;;;;;6328710;28;20465;-64
2022/05/02 04:00:28;;;;;;;10.27;9.30;;;13.20;99.90;;;;;;6328079;28;20472;-63
2022/05/02 04:03:31;;;;;;;10.87;9.40;;;13.20;99.90;;;;;;6330784;28;20487;-63
2022/05/02 04:06:34;;;;;;;10.30;9.30;;;13.10;99.90;;;;;;6328658;28;20479;-66
2022/05/02 04:09:39;;;;;;;9.67;8.70;;;13.10;99.90;;;;;;6328335;28;21046;-65
2022/05/02 04:12:42;;;;;;;12.53;9.50;;;13.10;99.90;;;;;;6328443;28;20479;-65
2022/05/02 04:15:46;;;;;;;10.60;9.50;;;13.20;99.90;;;;;;6319674;28;20547;-64
2022/05/02 04:18:49;;;;;;;11.23;9.70;;;13.20;99.90;;;;;;6328104;28;20565;-64
2022/05/02 04:21:53;;;;;;;8.70;7.90;;;13.20;99.90;;;;;;6328439;28;20464;-65
2022/05/02 04:24:58;;;;;;;9.33;8.43;;;13.20;99.90;;;;;;6327573;28;20540;-64
2022/05/02 04:28:01;;;;;;;8.80;8.10;;;13.20;99.90;;;;;;6328156;28;20469;-65
2022/05/02 04:31:05;;;;;;;8.20;7.60;;;13.20;99.90;;;;;;6327728;28;20487;-64
2022/05/02 04:34:08;;;;;;;9.30;8.50;;;13.20;99.90;;;;;;6327503;28;20962;-64
2022/05/02 04:37:11;;;;;;;10.07;9.17;;;13.30;99.90;;;;;;6327481;28;20468;-66
2022/05/02 04:40:16;;;;;;;9.80;8.90;;;13.20;99.90;;;;;;6331642;28;20491;-65
2022/05/02 04:43:19;;;;;;;9.50;8.60;;;13.30;99.90;;;;;;6330954;28;20480;-64
2022/05/02 04:46:23;;;;;;;9.97;8.67;;;13.20;99.90;;;;;;6327151;28;20472;-64
2022/05/02 04:49:26;;;;;;;8.57;7.70;;;13.30;99.90;;;;;;6327899;28;20460;-64
2022/05/02 04:52:29;;;;;;;10.63;9.80;;;13.30;99.90;;;;;;6326697;28;20464;-65
2022/05/02 04:55:34;;;;;;;9.23;8.10;;;13.20;99.90;;;;;;6326609;28;20585;-67
2022/05/02 04:58:37;;;;;;;8.97;8.27;;;13.30;99.90;;;;;;6327156;28;20795;-66
2022/05/02 05:01:40;;;;;;;9.30;8.50;;;13.40;99.90;;;;;;6326745;28;20469;-66
2022/05/02 05:04:43;;;;;;;9.23;8.43;;;13.40;99.90;;;;;;6326655;28;20552;-66
2022/05/02 05:07:47;;;;;;;9.17;8.37;;;13.50;99.90;;;;;;6326998;28;20483;-66
2022/05/02 05:11:01;;;;;;;10.30;9.30;;;13.50;99.90;;;;;;6326933;28;20469;-66
2022/05/02 05:17:47;;;;;;;9.87;8.90;;;13.50;99.90;;;;;;6327108;28;20473;-66
2022/05/02 05:20:58;;;;;;;9.77;8.77;;;13.50;99.90;;;;;;6322389;28;20492;-66
2022/05/02 05:24:58;;;;;;;8.53;7.83;;;13.50;99.90;;;;;;6326021;28;20465;-65
2022/05/02 05:28:42;;;;;;;10.17;9.07;;;13.60;99.90;;;;;;6325384;28;20476;-65
2022/05/02 05:31:54;;;;;;;8.70;8.00;;;13.60;99.90;;;;;;6310252;28;20469;-64
2022/05/02 05:35:05;;;;;;;8.47;7.60;;;13.60;99.90;;;;;;6325824;28;20475;-63
2022/05/02 05:38:10;;;;;;;9.43;8.43;;;13.60;99.90;;;;;;6325069;28;20464;-64
2022/05/02 05:41:30;;;;;;;8.53;7.73;;;13.50;99.90;;;;;;6326879;28;20479;-63
2022/05/02 05:44:47;;;;;;;9.60;8.80;;;13.50;99.90;;;;;;6328411;28;20551;-66
2022/05/02 05:48:01;;;;;;;9.87;8.97;;;13.50;99.90;;;;;;6329401;28;20476;-67
2022/05/02 05:51:18;;;;;;;9.37;7.73;;;13.60;99.90;;;;;;6330013;28;20475;-68
2022/05/02 05:54:39;;;;;;;10.60;9.50;;;13.80;99.90;;;;;;6328399;28;20479;-67
2022/05/02 05:57:49;;;;;;;10.63;9.53;;;13.70;99.90;;;;;;6326228;28;20483;-67
2022/05/02 06:01:02;;;;;;;11.63;10.67;;;13.80;99.90;;;;;;6327856;28;20472;-65
2022/05/02 06:04:07;;;;;;;13.10;11.90;;;13.80;99.90;;;;;;6326790;28;20485;-65
2022/05/02 06:07:13;;;;;;;12.50;11.20;;;13.90;99.90;;;;;;6326560;28;20472;-65
2022/05/02 06:10:17;;;;;;;12.40;11.10;;;13.90;99.90;;;;;;6326143;28;20480;-67
2022/05/02 06:13:23;;;;;;;14.00;12.70;;;14.00;99.90;;;;;;6325700;28;20495;-66
2022/05/02 06:20:11;;;;;;;12.10;11.10;;;14.10;99.90;;;;;;6325275;28;20496;-63
2022/05/02 06:23:15;;;;;;;10.83;9.70;;;14.30;99.90;;;;;;6324772;28;20944;-64
2022/05/02 06:26:22;;;;;;;11.13;10.03;;;14.50;99.90;;;;;;6319941;28;20488;-64
2022/05/02 06:29:25;;;;;;;11.43;10.37;;;14.60;99.90;;;;;;6324836;28;20476;-64
2022/05/02 06:32:31;;;;;;;11.07;9.93;;;14.60;99.90;;;;;;6324725;28;20565;-64
2022/05/02 06:35:41;;;;;;;11.90;10.87;;;14.70;99.90;;;;;;6324926;28;20521;-64
2022/05/02 06:38:53;;;;;;;12.63;11.17;;;14.80;99.90;;;;;;6324935;28;20483;-64
2022/05/02 06:42:13;;;;;;;15.40;10.20;;;14.80;99.90;;;;;;6325046;28;20885;-64
2022/05/02 06:45:28;;;;;;;11.37;10.40;;;14.90;99.90;;;;;;6324519;28;20487;-65
2022/05/02 06:48:37;;;;;;;10.07;9.17;;;15.00;99.90;;;;;;6324815;28;20495;-64
2022/05/02 06:51:42;;;;;;;10.10;9.10;;;15.10;99.90;;;;;;6324943;28;20982;-64
2022/05/02 06:55:02;;;;;;;9.70;8.70;;;15.10;99.90;;;;;;6325472;28;20543;-66
2022/05/02 06:58:16;;;;;;;8.97;8.07;;;15.10;99.90;;;;;;6326191;28;20456;-64
2022/05/02 07:01:29;;;;;;;11.47;9.30;;;15.10;99.90;;;;;;6324650;28;20490;-65
2022/05/02 07:04:51;;;;;;;8.77;7.50;;;15.10;99.90;;;;;;6324480;28;20475;-64
2022/05/02 07:08:05;;;;;;;7.87;7.10;;;15.10;99.90;;;;;;6324036;28;20543;-64
2022/05/02 07:11:14;;;;;;;10.00;7.70;;;15.10;99.90;;;;;;6324185;28;20477;-65
2022/05/02 07:14:23;;;;;;;10.00;8.57;;;15.10;99.90;;;;;;6324375;28;20475;-65
2022/05/02 07:17:37;;;;;;;8.63;7.27;;;15.10;99.90;;;;;;6326584;28;20483;-65
2022/05/02 07:20:55;;;;;;;9.90;8.30;;;15.00;99.90;;;;;;6329651;28;20472;-65
2022/05/02 07:24:14;;;;;;;8.60;7.70;;;14.80;99.90;;;;;;6329097;28;20463;-64
2022/05/02 07:27:27;;;;;;;8.37;7.50;;;14.80;99.90;;;;;;6319958;28;20490;-64
2022/05/02 07:30:31;;;;;;;9.30;7.20;;;14.80;99.90;;;;;;6330035;28;20479;-66
2022/05/02 07:33:37;;;;;;;9.63;7.60;;;14.80;99.90;;;;;;6331738;28;20555;-66
2022/05/02 07:36:50;;;;;;;8.50;7.67;;;14.80;99.90;;;;;;6332017;28;20465;-64
2022/05/02 07:39:53;;;;;;;10.77;7.33;;;14.90;99.90;;;;;;6340113;28;20468;-65
2022/05/02 07:42:59;;;;;;;12.33;7.90;;;15.00;99.90;;;;;;6336236;28;20464;-65
2022/05/02 07:46:03;;;;;;;11.20;8.63;;;15.20;99.90;;;;;;6353658;27;20479;-63
2022/05/02 07:49:09;;;;;;;16.47;7.93;;;15.40;99.90;;;;;;6330898;28;20468;-62
2022/05/02 07:52:20;;;;;;;13.73;8.17;;;16.20;99.90;;;;;;6321174;28;20469;-63
2022/05/02 07:55:24;;;;;;;7.53;6.90;;;16.70;99.90;;;;;;6327241;28;20461;-63
2022/05/02 07:58:29;;;;;;;7.60;6.80;;;17.00;99.90;;;;;;6327866;28;20495;-63
2022/05/02 08:01:33;;;;;;;9.53;8.03;;;17.20;99.70;;;;;;6328170;28;20972;-64
2022/05/02 08:04:37;;;;;;;9.03;7.83;;;17.30;98.70;;;;;;6328259;28;20483;-66
2022/05/02 08:07:44;;;;;;;10.13;7.23;;;17.60;98.20;;;;;;6327867;28;20483;-65
2022/05/02 08:10:57;;;;;;;11.23;7.70;;;19.00;97.70;;;;;;6327672;28;20237;-64
2022/05/02 08:14:08;;;;;;;8.13;7.10;;;21.50;94.40;;;;;;6344791;28;20240;-66
2022/05/02 08:17:24;;;;;;;8.57;7.87;;;24.40;84.90;;;;;;6353287;27;20222;-65
2022/05/02 08:20:36;;;;;;;6.87;6.07;;;27.40;71.20;;;;;;6353169;28;20247;-63
2022/05/02 08:27:31;;;;;;;7.57;6.87;;;30.10;48.70;;;;;;6326932;28;20230;-66
2022/05/02 08:30:44;;;;;;;6.10;5.60;;;28.70;48.80;;;;;;6327573;28;20226;-66
2022/05/02 08:33:56;;;;;;;6.10;5.50;;;27.90;51.60;;;;;;6316177;28;20721;-66
2022/05/02 08:37:11;;;;;;;6.77;6.17;;;28.20;51.40;;;;;;6280445;28;20690;-65
2022/05/02 08:40:30;;;;;;;6.27;5.67;;;27.90;50.10;;;;;;6292847;28;20234;-65
2022/05/02 08:44:18;;;;;;;6.80;5.53;;;27.30;49.80;;;;;;6302427;28;20234;-68
2022/05/02 08:48:09;;;;;;;5.97;5.47;;;26.80;51.30;;;;;;6310373;28;20305;-66
2022/05/02 08:51:48;;;;;;;9.43;6.27;;;26.70;52.40;;;;;;6327097;28;20645;-66
2022/05/02 08:55:20;;;;;;;6.70;6.00;;;26.90;51.70;;;;;;6320587;28;20295;-64
2022/05/02 08:59:03;;;;;;;6.43;5.30;;;27.30;50.50;;;;;;6327183;28;20226;-63
2022/05/02 09:03:00;;;;;;;7.30;5.93;;;27.50;50.00;;;;;;6326926;28;20240;-64
2022/05/02 09:06:41;;;;;;;7.90;6.00;;;27.20;49.10;;;;;;6260930;28;20236;-63
2022/05/02 09:10:06;;;;;;;7.83;6.33;;;26.60;50.00;;;;;;6278765;28;20719;-64
2022/05/02 09:13:37;;;;;;;5.93;5.33;;;26.30;50.60;;;;;;6310250;28;20237;-64
2022/05/02 09:17:15;;;;;;;6.20;5.60;;;26.20;49.80;;;;;;6299479;28;20234;-63
2022/05/02 09:20:49;;;;;;;7.77;5.63;;;25.80;51.20;;;;;;6300984;28;20749;-65
2022/05/02 09:24:37;;;;;;;5.67;5.17;;;25.70;51.90;;;;;;6305766;28;20427;-63
2022/05/02 09:28:02;;;;;;;8.43;4.90;;;25.60;51.40;;;;;;6304856;28;20221;-64
2022/05/02 09:31:19;;;;;;;5.37;4.50;;;25.50;51.20;;;;;;6303440;28;20307;-67
2022/05/02 09:34:35;;;;;;;5.50;5.00;;;25.40;50.90;;;;;;6311066;28;20262;-69
2022/05/02 09:37:40;;;;;;;7.27;4.93;;;25.30;50.50;;;;;;6316545;28;20230;-64
2022/05/02 09:40:43;;;;;;;5.37;4.87;;;25.00;50.80;;;;;;6325631;28;20234;-67
2022/05/02 09:51:19;;;;;;;4.47;4.10;;;25.50;49.80;;;;;;6319148;28;20940;-67
2022/05/02 09:58:15;;;;;;;6.03;5.10;;;25.50;48.70;;;;;;6325584;28;20233;-68
2022/05/02 10:01:23;;;;;;;5.60;5.07;;;25.40;48.50;;;;;;6325820;28;20226;-67
2022/05/02 10:04:36;;;;;;;5.27;4.87;;;25.20;48.90;;;;;;6325648;28;20233;-67
2022/05/02 10:07:50;;;;;;;5.10;4.63;;;25.30;49.20;;;;;;6326927;28;20250;-67
2022/05/02 10:11:00;;;;;;;5.60;5.10;;;25.30;49.20;;;;;;6325655;28;20230;-68
2022/05/02 10:14:28;;;;;;;5.37;4.90;;;25.30;49.10;;;;;;6314219;28;20234;-68
2022/05/02 10:17:54;;;;;;;5.80;5.30;;;25.30;50.10;;;;;;6300873;28;20257;-65
2022/05/02 10:21:07;;;;;;;5.73;5.23;;;25.20;49.20;;;;;;6301283;28;20531;-65
2022/05/02 10:24:43;;;;;;;5.73;5.23;;;25.10;48.90;;;;;;6300807;28;20364;-65
2022/05/02 10:28:04;;;;;;;5.77;5.30;;;24.50;51.00;;;;;;6300840;28;20683;-65
2022/05/02 10:31:10;;;;;;;6.10;5.60;;;24.70;51.70;;;;;;6301660;28;20222;-65
2022/05/02 10:34:18;;;;;;;5.33;4.90;;;24.80;50.10;;;;;;6301380;28;20266;-65
2022/05/02 10:37:28;;;;;;;6.03;5.53;;;24.90;50.50;;;;;;6301757;28;20231;-66
2022/05/02 10:40:38;;;;;;;6.00;5.50;;;25.10;49.10;;;;;;6304651;28;20234;-66
2022/05/02 10:43:50;;;;;;;6.80;6.07;;;25.30;49.20;;;;;;6325077;28;20240;-66
2022/05/02 10:46:57;;;;;;;5.30;4.90;;;25.10;50.10;;;;;;6324804;28;20226;-68
2022/05/02 10:50:18;;;;;;;6.90;6.20;;;24.90;51.70;;;;;;6324454;28;20677;-67
2022/05/02 10:53:41;;;;;;;5.20;4.80;;;24.50;50.50;;;;;;6329309;28;20240;-67
2022/05/02 10:56:48;;;;;;;8.83;6.43;;;24.30;51.60;;;;;;6329675;28;20218;-66
2022/05/02 10:59:54;;;;;;;5.93;5.33;;;24.20;51.80;;;;;;6331190;28;20240;-66
2022/05/02 11:03:18;;;;;;;5.50;5.00;;;24.00;53.70;;;;;;6296382;28;20227;-65
2022/05/02 11:06:38;;;;;;;6.43;4.87;;;24.00;52.70;;;;;;6305256;28;20234;-65
2022/05/02 11:09:57;;;;;;;6.30;5.70;;;24.10;52.90;;;;;;6337205;28;20245;-67
2022/05/02 11:13:12;;;;;;;6.00;5.57;;;24.40;52.70;;;;;;6329709;28;20245;-66
2022/05/02 11:16:23;;;;;;;7.47;5.80;;;24.60;51.70;;;;;;6305653;28;20230;-67
2022/05/02 11:23:14;;;;;;;5.83;5.33;;;24.40;52.20;;;;;;6331405;28;20238;-67
2022/05/02 11:26:27;;;;;;;6.10;5.60;;;23.90;53.00;;;;;;6328880;28;20234;-64
2022/05/02 11:29:41;;;;;;;5.60;5.10;;;23.00;54.10;;;;;;6327369;28;20607;-64
2022/05/02 11:32:54;;;;;;;6.13;5.63;;;22.70;54.50;;;;;;6327515;28;20798;-64
2022/05/02 11:36:00;;;;;;;5.60;5.10;;;22.60;55.30;;;;;;6327430;28;20825;-64
2022/05/02 11:39:05;;;;;;;5.70;5.30;;;22.50;55.60;;;;;;6328411;28;20201;-64
2022/05/02 11:42:11;;;;;;;8.13;5.67;;;22.30;55.80;;;;;;6299542;28;20204;-64
2022/05/02 11:45:17;;;;;;;6.80;5.00;;;22.30;55.50;;;;;;6303692;28;20213;-64
2022/05/02 11:49:03;;;;;;;5.97;4.93;;;22.40;57.70;;;;;;6321198;28;20230;-64
2022/05/02 11:52:14;;;;;;;6.20;5.60;;;22.70;58.00;;;;;;6322392;28;20227;-64
2022/05/02 11:55:26;;;;;;;6.17;5.57;;;22.90;61.00;;;;;;6328213;28;20700;-64
2022/05/02 11:58:37;;;;;;;6.83;6.20;;;23.10;61.10;;;;;;6327958;28;20257;-65
2022/05/02 12:01:45;;;;;;;7.50;6.60;;;23.10;63.70;;;;;;6328145;28;20235;-65
2022/05/02 12:04:52;;;;;;;8.30;6.60;;;23.00;65.20;;;;;;6327684;28;20253;-65
2022/05/02 12:07:58;;;;;;;7.00;6.40;;;22.90;63.80;;;;;;6327749;28;20697;-65
2022/05/02 12:11:06;;;;;;;5.73;5.07;;;22.80;63.30;;;;;;6327670;28;20314;-65
2022/05/02 12:14:19;;;;;;;5.40;4.90;;;22.70;64.00;;;;;;6327765;27;20227;-65
2022/05/02 12:17:24;;;;;;;5.50;5.10;;;22.60;63.10;;;;;;6327901;28;20689;-65
2022/05/02 12:20:29;;;;;;;6.30;5.80;;;22.50;64.70;;;;;;6327697;28;20299;-65
2022/05/02 12:23:35;;;;;;;6.30;5.70;;;22.30;66.70;;;;;;6327412;28;20309;-64
2022/05/02 12:26:45;;;;;;;5.90;4.67;;;21.90;67.10;;;;;;6327595;28;20705;-64
2022/05/02 12:29:57;;;;;;;5.33;4.83;;;21.80;67.70;;;;;;6327398;28;20694;-66
2022/05/02 12:33:04;;;;;;;6.63;5.33;;;21.60;67.40;;;;;;6327698;28;20222;-65
2022/05/02 12:36:15;;;;;;;5.73;5.17;;;21.50;67.80;;;;;;6327936;28;20221;-66
2022/05/02 12:39:20;;;;;;;5.33;4.83;;;21.60;68.50;;;;;;6325531;28;20227;-66
2022/05/02 12:42:26;;;;;;;5.17;4.73;;;21.60;68.60;;;;;;6327137;28;20245;-66
2022/05/02 12:45:45;;;;;;;5.60;5.10;;;21.50;68.30;;;;;;6318454;28;20232;-66
2022/05/02 12:48:55;;;;;;;6.00;4.60;;;21.60;68.20;;;;;;6326808;28;20549;-66
2022/05/02 12:51:58;;;;;;;5.47;4.50;;;21.70;68.00;;;;;;6328664;28;20305;-66
2022/05/02 12:55:02;;;;;;;5.23;4.60;;;21.90;67.40;;;;;;6332178;28;20234;-66
2022/05/02 13:01:26;;;;;;;5.60;5.10;;;22.40;65.90;;;;;;6327099;28;20230;-66
2022/05/02 13:04:33;;;;;;;4.90;4.50;;;22.50;65.80;;;;;;6326959;28;20678;-66
2022/05/02 13:07:45;;;;;;;5.07;4.17;;;22.40;64.40;;;;;;6326449;28;20238;-66
2022/05/02 13:10:52;;;;;;;4.53;4.13;;;22.30;64.50;;;;;;6326375;28;20230;-65
2022/05/02 13:13:58;;;;;;;4.40;4.00;;;22.30;65.80;;;;;;6326166;28;20230;-68
2022/05/02 13:17:02;;;;;;;8.73;4.50;;;22.10;64.70;;;;;;6327349;28;20230;-66
2022/05/02 13:20:14;;;;;;;5.83;4.13;;;22.20;64.10;;;;;;6326401;28;20305;-66
2022/05/02 13:23:17;;;;;;;4.30;3.90;;;22.20;62.00;;;;;;6306256;28;20231;-66
2022/05/02 13:26:47;;;;;;;4.53;4.10;;;22.10;62.30;;;;;;6284029;28;20867;-66
2022/05/02 13:30:03;;;;;;;4.23;3.80;;;22.10;64.10;;;;;;6275789;28;20238;-66
2022/05/02 13:33:14;;;;;;;4.23;3.40;;;22.10;64.00;;;;;;6301060;28;20227;-64
2022/05/02 13:36:19;;;;;;;4.37;3.60;;;22.10;63.40;;;;;;6317839;28;20282;-65
2022/05/02 13:39:28;;;;;;;5.53;4.03;;;21.90;64.00;;;;;;6325637;28;20662;-67
2022/05/02 13:42:55;;;;;;;5.73;4.50;;;21.80;64.50;;;;;;6325846;28;20235;-65
2022/05/02 13:46:13;;;;;;;4.40;3.90;;;21.50;65.00;;;;;;6300647;28;20223;-64
2022/05/02 13:49:50;;;;;;;4.63;3.70;;;21.20;66.30;;;;;;6290440;28;20246;-64
2022/05/02 13:53:03;;;;;;;3.90;3.60;;;20.90;66.00;;;;;;6300083;28;20247;-64
2022/05/02 13:56:37;;;;;;;3.53;3.23;;;20.70;66.00;;;;;;6299995;28;20238;-65
2022/05/02 13:59:50;;;;;;;4.27;3.70;;;20.40;66.60;;;;;;6307257;28;20306;-65
2022/05/02 14:03:22;;;;;;;4.13;3.83;;;20.10;67.60;;;;;;6311572;28;20313;-65
2022/05/02 14:06:30;;;;;;;4.20;3.90;;;19.90;68.30;;;;;;6321263;28;20223;-65
2022/05/02 14:09:44;;;;;;;3.90;3.60;;;19.70;69.20;;;;;;6300228;28;20230;-66
2022/05/02 14:12:48;;;;;;;3.50;3.30;;;19.50;67.30;;;;;;6303844;28;20226;-64
2022/05/02 14:15:53;;;;;;;4.13;3.67;;;19.30;68.00;;;;;;6325026;28;20222;-64
2022/05/02 14:18:58;;;;;;;3.60;3.30;;;19.10;69.70;;;;;;6325459;28;20223;-64
2022/05/02 14:22:01;;;;;;;2.90;2.70;;;19.10;69.70;;;;;;6325478;28;20222;-64
2022/05/02 14:25:08;;;;;;;3.20;3.00;;;18.60;67.00;;;;;;6334275;28;20230;-64
2022/05/02 14:28:31;;;;;;;3.37;3.07;;;18.40;68.30;;;;;;6337772;28;20230;-64
2022/05/02 14:31:37;;;;;;;3.87;2.90;;;18.20;70.30;;;;;;6335001;28;20226;-64
2022/05/02 14:34:42;;;;;;;5.20;4.17;;;18.20;75.60;;;;;;6325534;28;20218;-65
2022/05/02 14:37:46;;;;;;;7.53;4.73;;;17.70;82.60;;;;;;6325325;27;20561;-65
2022/05/02 14:40:52;;;;;;;4.13;3.80;;;17.00;88.30;;;;;;6325450;27;20461;-65
2022/05/02 14:43:55;;;;;;;4.10;3.70;;;16.80;91.60;;;;;;6325705;28;20481;-64
2022/05/02 14:47:01;;;;;;;5.83;5.07;;;16.70;92.90;;;;;;6328526;28;20547;-65
2022/05/02 14:50:05;;;;;;;5.80;5.30;;;16.80;96.10;;;;;;6326513;28;20479;-65
2022/05/02 14:53:10;;;;;;;6.47;5.87;;;16.70;97.80;;;;;;6320759;28;20831;-65
2022/05/02 14:56:16;;;;;;;7.63;6.90;;;16.40;99.20;;;;;;6324639;28;20472;-65
2022/05/02 14:59:21;;;;;;;5.37;4.87;;;16.10;99.90;;;;;;6325178;28;20968;-66
2022/05/02 15:02:26;;;;;;;6.60;6.10;;;15.80;99.90;;;;;;6324515;28;20469;-65
2022/05/02 15:05:32;;;;;;;7.30;6.70;;;15.70;99.90;;;;;;6324329;28;21070;-65
2022/05/02 15:08:54;;;;;;;6.50;5.90;;;15.70;99.90;;;;;;6323771;28;20980;-66
2022/05/02 15:12:10;;;;;;;5.93;5.43;;;15.70;99.90;;;;;;6299243;28;20446;-66
2022/05/02 15:15:46;;;;;;;6.50;6.00;;;15.50;99.90;;;;;;6324458;27;20738;-65
2022/05/02 15:19:37;;;;;;;5.80;5.07;;;15.30;99.90;;;;;;6324229;27;20464;-66
2022/05/02 15:22:48;;;;;;;6.40;5.90;;;15.40;99.90;;;;;;6323960;27;20481;-66
2022/05/02 15:25:53;;;;;;;6.60;6.00;;;15.50;99.90;;;;;;6323612;27;20968;-67
2022/05/02 15:39:06;;;;;;;5.40;5.00;;;15.50;99.90;;;;;;6324272;28;20437;-67
2022/05/02 15:42:15;;;;;;;8.17;4.37;;;15.20;99.90;;;;;;6303790;28;20445;-67
2022/05/02 15:45:23;;;;;;;6.13;5.53;;;14.80;99.90;;;;;;6304468;28;20518;-66
2022/05/02 15:48:36;;;;;;;6.20;5.70;;;14.60;99.90;;;;;;6321946;28;20499;-66
2022/05/02 15:51:44;;;;;;;4.93;4.53;;;14.50;99.90;;;;;;6329202;28;20485;-66
2022/05/02 15:54:58;;;;;;;4.47;4.07;;;14.60;99.90;;;;;;6319744;28;20499;-66
2022/05/02 15:58:07;;;;;;;4.77;4.30;;;14.70;99.90;;;;;;6321017;28;20468;-66
2022/05/02 16:01:21;;;;;;;6.20;4.70;;;14.90;99.90;;;;;;6316678;28;20468;-67
2022/05/02 16:04:26;;;;;;;3.73;3.43;;;15.00;99.90;;;;;;6303065;28;20480;-66
2022/05/02 16:11:12;;;;;;;5.60;4.50;;;15.30;99.90;;;;;;6302936;28;20469;-66
2022/05/02 16:14:17;;;;;;;4.20;3.37;;;15.40;99.90;;;;;;6318785;28;20465;-67
2022/05/02 16:17:22;;;;;;;4.50;4.10;;;15.50;99.90;;;;;;6328154;28;20993;-67
2022/05/02 16:20:25;;;;;;;4.17;3.77;;;15.60;99.90;;;;;;6328764;28;20472;-68
2022/05/02 16:23:29;;;;;;;4.20;3.80;;;15.70;99.90;;;;;;6331007;28;20757;-68
2022/05/02 16:26:32;;;;;;;3.83;3.53;;;15.80;99.90;;;;;;6330250;28;20460;-67
2022/05/02 16:29:35;;;;;;;3.57;3.27;;;15.80;99.90;;;;;;6328430;28;20483;-67
2022/05/02 16:32:42;;;;;;;3.53;3.23;;;15.80;99.90;;;;;;6327452;28;20491;-66
2022/05/02 16:35:46;;;;;;;3.97;3.67;;;15.70;99.90;;;;;;6329152;28;20483;-66
2022/05/02 16:38:49;;;;;;;3.70;3.40;;;15.60;99.90;;;;;;6330180;28;20483;-68
2022/05/02 16:41:52;;;;;;;4.17;3.77;;;15.50;99.90;;;;;;6327615;28;20483;-67
2022/05/02 16:44:57;;;;;;;4.67;4.17;;;15.50;99.90;;;;;;6327813;28;20975;-67
2022/05/02 16:48:02;;;;;;;4.20;3.90;;;15.50;99.90;;;;;;6327616;27;20456;-67
2022/05/02 16:51:05;;;;;;;4.77;4.37;;;15.60;99.90;;;;;;6326471;28;20788;-67
2022/05/02 16:54:08;;;;;;;5.10;4.63;;;15.60;99.90;;;;;;6326090;28;20928;-66
2022/05/02 16:57:11;;;;;;;5.27;4.60;;;15.60;99.90;;;;;;6302327;28;20450;-65
2022/05/02 17:00:23;;;;;;;6.23;5.40;;;15.60;99.90;;;;;;6291858;28;20457;-67
2022/05/02 17:03:31;;;;;;;4.77;4.37;;;15.60;99.90;;;;;;6313046;28;21005;-67
2022/05/02 17:06:35;;;;;;;5.17;4.77;;;15.40;99.90;;;;;;6327888;28;20468;-66
2022/05/02 17:09:39;;;;;;;5.13;4.73;;;15.40;99.90;;;;;;6326058;28;20469;-66